Terminal Aerodrome Forecast
Issued by NWS La Crosse, WI

Home | Current Version | Previous Version | Text Only | Print | Product List | Glossary On
Versions: 1 2 3 4 5 6 7 8 9 10 11 12 13 14 15 16 17 18 19 20 21 22 23 24 25 26 27 28
000
FTUS43 KARX 280015 AAA
TAFRST
TAF AMD
KRST 280015Z 2800/2824 23007KT P6SM -RA BKN035 OVC120
     FM280100 33006KT P6SM SCT030 BKN100
     FM280500 35005KT 4SM BR BKN020
     FM281000 35006KT 2SM BR VCSH OVC010
     FM281500 35006KT 5SM BR VCSH OVC012
     FM281800 35007KT P6SM VCSH BKN015=

USA.gov is the U.S. government's official web portal to all federal, state and local government web resources and services.